POGODA: Poland

Lotnisko: Szczecin-Goleniow

METAR KOD: EPSC


METAR: EPSC 260000Z 16005KT 2500 BR BKN006 05/05 Q1023


BLOK
Pogoda METAR
260000Z
Dzien: 26, Godzina: 00:00 UTC.
16005KT
Wiatr z kierunku 160, o predkosci 9 km/h
2500
Widzialnosc pozioma 2500 m.
BR
zamglenia
BKN006
5/8 - 7/8 pokrycia nieba, chmurami o podstawie: 180 metrow
05/05
Temperatura: powietrze 5°C, punkt rosy 5°C . Wilgotnosc wzgledna 100 %
Q1023
Cisnienie: 1023 hPa

Pogoda na innym lotnisku

Pogoda Gdansk-Rebiechowo WEATHER Poland  
Pogoda Katowice WEATHER Poland  
Pogoda Krakow WEATHER Poland  
Pogoda Poznan WEATHER Poland  
Pogoda Rzeszow-Jasionka WEATHER Poland  
Pogoda Szczecin WEATHER Poland  
Pogoda Warszawa-Okecie WEATHER Poland  
Pogoda Wroclaw Ii WEATHER Poland  

Pogoda w inny kraju

Strona startowa

(C) by GREGOR 2007
Ogłoszenia Towarzyskie